createdAt,value
2018-11-10T00:00:09.516Z,1001.87
2018-11-10T00:01:09.495Z,1001.81
2018-11-10T00:02:09.478Z,1001.81
2018-11-10T00:03:09.464Z,1001.81
2018-11-10T00:04:09.456Z,1001.76
2018-11-10T00:05:09.411Z,1001.78
2018-11-10T00:06:09.390Z,1001.78
2018-11-10T00:07:09.384Z,1001.73
2018-11-10T00:08:09.372Z,1001.74
2018-11-10T00:09:09.329Z,1001.71
2018-11-10T00:10:09.304Z,1001.71
2018-11-10T00:11:09.291Z,1001.70
2018-11-10T00:12:09.270Z,1001.69
2018-11-10T00:13:09.240Z,1001.69
2018-11-10T00:14:09.224Z,1001.67
2018-11-10T00:15:09.203Z,1001.64
2018-11-10T00:16:09.184Z,1001.61
2018-11-10T00:17:09.162Z,1001.60
2018-11-10T00:18:09.139Z,1001.58
2018-11-10T00:19:09.117Z,1001.56
2018-11-10T00:20:09.100Z,1001.52
2018-11-10T00:21:09.072Z,1001.54
2018-11-10T00:22:09.053Z,1001.50
2018-11-10T00:23:09.032Z,1001.52
2018-11-10T00:24:09.017Z,1001.47
2018-11-10T00:25:08.986Z,1001.47
2018-11-10T00:26:08.965Z,1001.46
2018-11-10T00:27:08.945Z,1001.50
2018-11-10T00:28:08.925Z,1001.48
2018-11-10T00:29:08.900Z,1001.47
2018-11-10T00:30:08.879Z,1001.44
2018-11-10T00:31:08.858Z,1001.45
2018-11-10T00:32:08.847Z,1001.40
2018-11-10T00:33:08.821Z,1001.40
2018-11-10T00:34:08.802Z,1001.40
2018-11-10T00:35:08.772Z,1001.42
2018-11-10T00:36:08.759Z,1001.44
2018-11-10T00:37:08.739Z,1001.38
2018-11-10T00:38:08.708Z,1001.38
2018-11-10T00:39:08.689Z,1001.38
2018-11-10T00:40:08.680Z,1001.32
2018-11-10T00:41:08.644Z,1001.35
2018-11-10T00:42:08.638Z,1001.31
2018-11-10T00:43:08.604Z,1001.31
2018-11-10T00:44:08.580Z,1001.29
2018-11-10T00:45:08.558Z,1001.23
2018-11-10T00:46:08.538Z,1001.24
2018-11-10T00:47:08.524Z,1001.31
2018-11-10T00:48:08.494Z,1001.26
2018-11-10T00:49:08.479Z,1001.21
2018-11-10T00:50:08.456Z,1001.22
2018-11-10T00:51:08.432Z,1001.21
2018-11-10T00:52:08.409Z,1001.21
2018-11-10T00:53:08.387Z,1001.16
2018-11-10T00:54:08.365Z,1001.13
2018-11-10T00:55:08.346Z,1001.13
2018-11-10T00:56:08.322Z,1001.16
2018-11-10T00:57:08.304Z,1001.14
2018-11-10T00:58:08.288Z,1001.12
2018-11-10T00:59:08.260Z,1001.14
2018-11-10T01:00:08.239Z,1001.14
2018-11-10T01:01:08.216Z,1001.16
2018-11-10T01:02:08.206Z,1001.16
2018-11-10T01:03:08.173Z,1001.13
2018-11-10T01:04:08.151Z,1001.13
2018-11-10T01:05:08.138Z,1001.14
2018-11-10T01:06:08.110Z,1001.08
2018-11-10T01:07:08.096Z,1001.06
2018-11-10T01:08:08.067Z,1001.04
2018-11-10T01:09:08.046Z,1001.04
2018-11-10T01:10:08.024Z,1001.07
2018-11-10T01:11:08.010Z,1001.02
2018-11-10T01:12:07.981Z,1001.01
2018-11-10T01:13:07.959Z,1001.03
2018-11-10T01:14:07.942Z,1001.02
2018-11-10T01:15:07.945Z,1001.01
2018-11-10T01:16:07.893Z,1000.98
2018-11-10T01:17:07.876Z,1001.01
2018-11-10T01:18:07.851Z,1000.99
2018-11-10T01:19:07.833Z,1000.97
2018-11-10T01:20:07.809Z,1000.96
2018-11-10T01:21:07.790Z,1000.92
2018-11-10T01:22:07.775Z,1000.94
2018-11-10T01:23:07.746Z,1000.94
2018-11-10T01:24:07.724Z,1000.89
2018-11-10T01:25:07.704Z,1000.93
2018-11-10T01:26:07.681Z,1000.90
2018-11-10T01:27:07.660Z,1000.88
2018-11-10T01:28:07.642Z,1000.84
2018-11-10T01:29:07.619Z,1000.88
2018-11-10T01:30:07.601Z,1000.89
2018-11-10T01:31:07.575Z,1000.87
2018-11-10T01:32:07.554Z,1000.85
2018-11-10T01:33:07.538Z,1000.77
2018-11-10T01:34:07.511Z,1000.78
2018-11-10T01:35:07.502Z,1000.79
2018-11-10T01:36:07.467Z,1000.79
2018-11-10T01:37:07.446Z,1000.72
2018-11-10T01:38:07.438Z,1000.73
2018-11-10T01:39:07.404Z,1000.77
2018-11-10T01:40:07.406Z,1000.77
2018-11-10T01:41:07.361Z,1000.74
2018-11-10T01:42:07.340Z,1000.72
2018-11-10T01:43:07.319Z,1000.70
2018-11-10T01:44:07.299Z,1000.69
2018-11-10T01:45:07.278Z,1000.70
2018-11-10T01:46:07.256Z,1000.63
2018-11-10T01:47:07.253Z,1000.64
2018-11-10T01:48:07.212Z,1000.61
2018-11-10T01:49:07.190Z,1000.61
2018-11-10T01:50:07.171Z,1000.59
2018-11-10T01:51:07.157Z,1000.56
2018-11-10T01:52:07.126Z,1000.56
2018-11-10T01:53:07.105Z,1000.54
2018-11-10T01:54:07.094Z,1000.54
2018-11-10T01:55:07.065Z,1000.51
2018-11-10T01:56:07.045Z,1000.49
2018-11-10T01:57:07.023Z,1000.45
2018-11-10T01:58:07.001Z,1000.43
2018-11-10T01:59:06.994Z,1000.41
2018-11-10T02:00:06.957Z,1000.36
2018-11-10T02:01:06.945Z,1000.38
2018-11-10T02:02:06.914Z,1000.36
2018-11-10T02:03:06.893Z,1000.33
2018-11-10T02:04:06.876Z,1000.33
2018-11-10T02:05:06.854Z,1000.29
2018-11-10T02:06:06.830Z,1000.29
2018-11-10T02:07:06.810Z,1000.26
2018-11-10T02:08:06.794Z,1000.30
2018-11-10T02:09:06.765Z,1000.23
2018-11-10T02:10:06.748Z,1000.25
2018-11-10T02:11:06.724Z,1000.20
2018-11-10T02:12:06.705Z,1000.22
2018-11-10T02:13:06.682Z,1000.19
2018-11-10T02:14:06.662Z,1000.16
2018-11-10T02:15:06.641Z,1000.16
2018-11-10T02:16:06.619Z,1000.16
2018-11-10T02:17:06.599Z,1000.16
2018-11-10T02:18:06.577Z,1000.14
2018-11-10T02:19:06.555Z,1000.10
2018-11-10T02:20:06.532Z,1000.11
2018-11-10T02:21:06.513Z,1000.08
2018-11-10T02:22:06.501Z,1000.06
2018-11-10T02:23:06.471Z,1000.06
2018-11-10T02:24:06.449Z,1000.06
2018-11-10T02:25:06.427Z,1000.03
2018-11-10T02:26:06.413Z,1000.04
2018-11-10T02:27:06.394Z,1000.03
2018-11-10T02:28:06.365Z,1000.05
2018-11-10T02:29:06.345Z,1000.02
2018-11-10T02:30:06.323Z,1000.07
2018-11-10T02:31:06.303Z,1000.05
2018-11-10T02:32:06.278Z,1000.04
2018-11-10T02:33:06.260Z,1000.00
2018-11-10T02:34:06.236Z,999.94
2018-11-10T02:35:06.217Z,999.96
2018-11-10T02:36:06.200Z,999.92
2018-11-10T02:37:06.180Z,999.90
2018-11-10T02:38:06.153Z,999.84
2018-11-10T02:39:06.142Z,999.84
2018-11-10T02:40:06.121Z,999.81
2018-11-10T02:41:06.102Z,999.83
2018-11-10T02:42:06.069Z,999.79
2018-11-10T02:43:06.052Z,999.83
2018-11-10T02:44:06.041Z,999.78
2018-11-10T02:45:06.006Z,999.77
2018-11-10T02:46:05.983Z,999.80
2018-11-10T02:47:05.963Z,999.77
2018-11-10T02:48:05.950Z,999.80
2018-11-10T02:49:05.924Z,999.73
2018-11-10T02:50:05.900Z,999.76
2018-11-10T02:51:05.883Z,999.73
2018-11-10T02:52:05.865Z,999.73
2018-11-10T02:53:05.838Z,999.71
2018-11-10T02:54:05.822Z,999.69
2018-11-10T02:55:05.797Z,999.69
2018-11-10T02:56:05.773Z,999.70
2018-11-10T02:57:05.751Z,999.67
2018-11-10T02:58:05.733Z,999.64
2018-11-10T02:59:05.710Z,999.63
2018-11-10T03:00:05.689Z,999.63
2018-11-10T03:01:05.669Z,999.60
2018-11-10T03:02:05.649Z,999.59
2018-11-10T03:03:05.628Z,999.61
2018-11-10T03:04:05.606Z,999.61
2018-11-10T03:05:05.585Z,999.54
2018-11-10T03:06:05.564Z,999.46
2018-11-10T03:07:05.545Z,999.47
2018-11-10T03:08:05.519Z,999.46
2018-11-10T03:09:05.500Z,999.42
2018-11-10T03:10:05.478Z,999.42
2018-11-10T03:11:05.459Z,999.39
2018-11-10T03:12:05.436Z,999.39
2018-11-10T03:13:05.413Z,999.40
2018-11-10T03:14:05.403Z,999.36
2018-11-10T03:15:05.376Z,999.33
2018-11-10T03:16:05.353Z,999.34
2018-11-10T03:17:05.331Z,999.35
2018-11-10T03:18:05.319Z,999.35
2018-11-10T03:19:05.294Z,999.30
2018-11-10T03:20:05.318Z,999.32
2018-11-10T03:21:05.247Z,999.25
2018-11-10T03:22:05.228Z,999.27
2018-11-10T03:23:05.211Z,999.20
2018-11-10T03:24:05.193Z,999.21
2018-11-10T03:25:05.164Z,999.19
2018-11-10T03:26:05.143Z,999.18
2018-11-10T03:27:05.121Z,999.20
2018-11-10T03:28:05.105Z,999.13
2018-11-10T03:29:05.090Z,999.14
2018-11-10T03:30:05.059Z,999.14
2018-11-10T03:31:05.039Z,999.16
2018-11-10T03:32:05.019Z,999.09
2018-11-10T03:33:04.996Z,999.11
2018-11-10T03:34:04.974Z,999.09
2018-11-10T03:35:04.964Z,999.07
2018-11-10T03:36:04.933Z,999.07
2018-11-10T03:37:04.915Z,999.08
2018-11-10T03:38:04.893Z,999.01
2018-11-10T03:39:04.871Z,999.01
2018-11-10T03:40:04.904Z,999.00
2018-11-10T03:41:04.831Z,999.00
2018-11-10T03:42:04.857Z,998.98
2018-11-10T03:43:04.787Z,998.96
2018-11-10T03:44:04.767Z,998.93
2018-11-10T03:45:04.744Z,998.90
2018-11-10T03:46:04.725Z,998.95
2018-11-10T03:47:04.704Z,998.91
2018-11-10T03:48:04.726Z,998.93
2018-11-10T03:49:04.665Z,998.89
2018-11-10T03:50:04.645Z,998.94
2018-11-10T03:51:04.620Z,998.92
2018-11-10T03:52:04.599Z,998.90
2018-11-10T03:53:04.580Z,998.92
2018-11-10T03:54:04.557Z,998.87
2018-11-10T03:55:04.537Z,998.85
2018-11-10T03:56:04.518Z,998.90
2018-11-10T03:57:04.497Z,998.84
2018-11-10T03:58:04.478Z,998.84
2018-11-10T03:59:04.456Z,998.85
2018-11-10T04:00:04.433Z,998.89
2018-11-10T04:01:04.414Z,998.82
2018-11-10T04:02:04.393Z,998.85
2018-11-10T04:03:04.372Z,998.83
2018-11-10T04:04:04.360Z,998.82
2018-11-10T04:05:04.333Z,998.84
2018-11-10T04:06:04.309Z,998.78
2018-11-10T04:07:04.291Z,998.75
2018-11-10T04:08:04.270Z,998.68
2018-11-10T04:09:04.298Z,998.70
2018-11-10T04:10:04.237Z,998.69
2018-11-10T04:11:04.208Z,998.66
2018-11-10T04:12:04.286Z,998.65
2018-11-10T04:13:04.174Z,998.65
2018-11-10T04:14:04.145Z,998.60
2018-11-10T04:15:04.129Z,998.61
2018-11-10T04:16:04.101Z,998.58
2018-11-10T04:17:04.082Z,998.57
2018-11-10T04:18:04.061Z,998.62
2018-11-10T04:19:04.049Z,998.54
2018-11-10T04:20:04.028Z,998.59
2018-11-10T04:21:03.999Z,998.50
2018-11-10T04:22:03.978Z,998.54
2018-11-10T04:23:03.958Z,998.52
2018-11-10T04:24:03.943Z,998.55
2018-11-10T04:25:03.932Z,998.54
2018-11-10T04:26:03.898Z,998.50
2018-11-10T04:27:03.875Z,998.48
2018-11-10T04:28:03.853Z,998.42
2018-11-10T04:29:03.834Z,998.43
2018-11-10T04:30:03.811Z,998.38
2018-11-10T04:31:03.790Z,998.32
2018-11-10T04:32:03.770Z,998.33
2018-11-10T04:33:03.761Z,998.39
2018-11-10T04:34:03.728Z,998.35
2018-11-10T04:35:03.708Z,998.38
2018-11-10T04:36:03.687Z,998.32
2018-11-10T04:37:03.674Z,998.34
2018-11-10T04:38:03.646Z,998.31
2018-11-10T04:39:03.625Z,998.29
2018-11-10T04:40:03.605Z,998.27
2018-11-10T04:41:03.584Z,998.25
2018-11-10T04:42:03.562Z,998.21
2018-11-10T04:43:03.542Z,998.22
2018-11-10T04:44:03.523Z,998.24
2018-11-10T04:45:03.500Z,998.24
2018-11-10T04:46:03.486Z,998.17
2018-11-10T04:47:03.459Z,998.19
2018-11-10T04:48:03.438Z,998.13
2018-11-10T04:49:03.423Z,998.16
2018-11-10T04:50:03.405Z,998.16
2018-11-10T04:51:03.377Z,998.11
2018-11-10T04:52:03.356Z,998.11
2018-11-10T04:53:03.340Z,998.08
2018-11-10T04:54:03.318Z,998.07
2018-11-10T04:55:03.293Z,998.03
2018-11-10T04:56:03.277Z,998.05
2018-11-10T04:57:03.261Z,998.06
2018-11-10T04:58:03.231Z,998.05
2018-11-10T04:59:03.216Z,998.03
2018-11-10T05:00:03.193Z,998.05
2018-11-10T05:01:03.326Z,998.04
2018-11-10T05:02:03.165Z,998.04
2018-11-10T05:03:03.126Z,998.03
2018-11-10T05:04:03.107Z,998.04
2018-11-10T05:05:03.096Z,997.99
2018-11-10T05:06:03.064Z,997.99
2018-11-10T05:07:03.045Z,998.00
2018-11-10T05:08:03.021Z,997.97
2018-11-10T05:09:03.006Z,997.93
2018-11-10T05:10:02.982Z,997.93
2018-11-10T05:11:02.960Z,997.92
2018-11-10T05:12:02.948Z,997.89
2018-11-10T05:13:02.918Z,997.87
2018-11-10T05:14:02.899Z,997.90
2018-11-10T05:15:02.877Z,997.84
2018-11-10T05:16:02.866Z,997.82
2018-11-10T05:17:02.847Z,997.80
2018-11-10T05:18:02.816Z,997.83
2018-11-10T05:19:02.793Z,997.84
2018-11-10T05:20:02.783Z,997.83
2018-11-10T05:21:02.752Z,997.84
2018-11-10T05:22:02.732Z,997.84
2018-11-10T05:23:02.715Z,997.84
2018-11-10T05:24:02.690Z,997.84
2018-11-10T05:25:02.668Z,997.85
2018-11-10T05:26:02.650Z,997.76
2018-11-10T05:27:02.632Z,997.79
2018-11-10T05:28:02.607Z,997.79
2018-11-10T05:29:02.588Z,997.74
2018-11-10T05:30:02.569Z,997.80
2018-11-10T05:31:02.587Z,997.81
2018-11-10T05:32:02.526Z,997.78
2018-11-10T05:33:02.505Z,997.79
2018-11-10T05:34:02.486Z,997.75
2018-11-10T05:35:02.466Z,997.79
2018-11-10T05:36:02.442Z,997.75
2018-11-10T05:37:02.525Z,997.75
2018-11-10T05:38:02.409Z,997.76
2018-11-10T05:39:02.386Z,997.75
2018-11-10T05:40:02.360Z,997.75
2018-11-10T05:41:02.340Z,997.73
2018-11-10T05:42:02.319Z,997.76
2018-11-10T05:43:02.302Z,997.75
2018-11-10T05:44:02.278Z,997.68
2018-11-10T05:45:02.258Z,997.74
2018-11-10T05:46:02.238Z,997.72
2018-11-10T05:47:02.217Z,997.71
2018-11-10T05:48:02.197Z,997.76
2018-11-10T05:49:02.175Z,997.76
2018-11-10T05:50:02.155Z,997.79
2018-11-10T05:51:02.135Z,997.81
2018-11-10T05:52:02.113Z,997.82
2018-11-10T05:53:02.093Z,997.77
2018-11-10T05:54:02.075Z,997.76
2018-11-10T05:55:02.058Z,997.79
2018-11-10T05:56:02.034Z,997.79
2018-11-10T05:57:02.057Z,997.84
2018-11-10T05:58:01.995Z,997.79
2018-11-10T05:59:01.974Z,997.77
2018-11-10T06:00:01.955Z,997.81
2018-11-10T06:01:01.931Z,997.75
2018-11-10T06:02:01.909Z,997.74
2018-11-10T06:03:01.954Z,997.80
2018-11-10T06:04:01.871Z,997.75
2018-11-10T06:05:01.848Z,997.69
2018-11-10T06:06:01.827Z,997.70
2018-11-10T06:07:01.809Z,997.73
2018-11-10T06:08:01.785Z,997.70
2018-11-10T06:09:01.783Z,997.75
2018-11-10T06:10:01.880Z,997.70
2018-11-10T06:11:01.729Z,997.73
2018-11-10T06:12:01.705Z,997.76
2018-11-10T06:13:01.682Z,997.77
2018-11-10T06:14:01.672Z,997.75
2018-11-10T06:15:01.641Z,997.77
2018-11-10T06:16:01.660Z,997.80
2018-11-10T06:17:01.601Z,997.83
2018-11-10T06:18:01.580Z,997.81
2018-11-10T06:19:01.570Z,997.89
2018-11-10T06:20:01.540Z,997.83
2018-11-10T06:21:01.523Z,997.80
2018-11-10T06:22:01.499Z,997.82
2018-11-10T06:23:01.481Z,997.86
2018-11-10T06:24:01.476Z,997.81
2018-11-10T06:25:01.438Z,997.82
2018-11-10T06:26:01.462Z,997.86
2018-11-10T06:27:01.404Z,997.82
2018-11-10T06:28:01.378Z,997.88
2018-11-10T06:29:01.404Z,997.92
2018-11-10T06:30:01.337Z,997.95
2018-11-10T06:31:01.316Z,998.01
2018-11-10T06:32:01.304Z,997.96
2018-11-10T06:33:01.282Z,998.00
2018-11-10T06:34:01.255Z,997.97
2018-11-10T06:35:01.236Z,997.96
2018-11-10T06:36:01.216Z,997.99
2018-11-10T06:37:01.193Z,998.01
2018-11-10T06:38:01.176Z,998.01
2018-11-10T06:39:01.152Z,997.97
2018-11-10T06:40:01.130Z,998.01
2018-11-10T06:41:01.111Z,998.03
2018-11-10T06:42:01.091Z,998.02
2018-11-10T06:43:01.071Z,998.06
2018-11-10T06:44:01.058Z,998.08
2018-11-10T06:45:01.029Z,998.04
2018-11-10T06:46:01.010Z,998.10
2018-11-10T06:47:01.053Z,998.07
2018-11-10T06:48:00.968Z,998.10
2018-11-10T06:49:00.951Z,998.11
2018-11-10T06:50:00.931Z,998.09
2018-11-10T06:51:00.913Z,998.15
2018-11-10T06:52:00.886Z,998.17
2018-11-10T06:53:00.900Z,998.17
2018-11-10T06:54:00.849Z,998.19
2018-11-10T06:55:00.828Z,998.18
2018-11-10T06:56:00.814Z,998.17
2018-11-10T06:57:00.797Z,998.16
2018-11-10T06:58:00.787Z,998.19
2018-11-10T06:59:00.748Z,998.22
2018-11-10T07:00:00.738Z,998.21
2018-11-10T07:01:00.704Z,998.23
2018-11-10T07:02:00.685Z,998.18
2018-11-10T07:03:00.667Z,998.18
2018-11-10T07:04:00.645Z,998.21
2018-11-10T07:05:00.625Z,998.19
2018-11-10T07:06:00.613Z,998.21
2018-11-10T07:07:00.595Z,998.18
2018-11-10T07:08:00.564Z,998.20
2018-11-10T07:09:00.542Z,998.18
2018-11-10T07:10:00.525Z,998.19
2018-11-10T07:11:00.502Z,998.15
2018-11-10T07:12:00.482Z,998.14
2018-11-10T07:13:00.466Z,998.16
2018-11-10T07:14:00.460Z,998.15
2018-11-10T07:15:00.431Z,998.15
2018-11-10T07:16:00.400Z,998.11
2018-11-10T07:17:00.380Z,998.18
2018-11-10T07:18:00.425Z,998.12
2018-11-10T07:19:00.340Z,998.19
2018-11-10T07:20:00.320Z,998.20
2018-11-10T07:21:00.306Z,998.23
2018-11-10T07:22:00.279Z,998.22
2018-11-10T07:23:00.260Z,998.29
2018-11-10T07:24:00.239Z,998.28
2018-11-10T07:25:00.268Z,998.34
2018-11-10T07:26:00.203Z,998.44
2018-11-10T07:27:00.178Z,998.36
2018-11-10T07:28:00.158Z,998.34
2018-11-10T07:29:00.137Z,998.34
2018-11-10T07:30:00.118Z,998.30
2018-11-10T07:31:00.097Z,998.35
2018-11-10T07:32:00.186Z,998.35
2018-11-10T07:33:00.071Z,998.35
2018-11-10T07:34:00.037Z,998.33
2018-11-10T07:35:00.015Z,998.32
2018-11-10T07:35:59.995Z,998.36
2018-11-10T07:36:59.982Z,998.38
2018-11-10T07:37:59.962Z,998.35
2018-11-10T07:38:59.934Z,998.42
2018-11-10T07:39:59.912Z,998.43
2018-11-10T07:40:59.891Z,998.42
2018-11-10T07:41:59.882Z,998.41
2018-11-10T07:42:59.912Z,998.44
2018-11-10T07:43:59.838Z,998.39
2018-11-10T07:44:59.810Z,998.45
2018-11-10T07:45:59.797Z,998.39
2018-11-10T07:46:59.769Z,998.36
2018-11-10T07:47:59.747Z,998.41
2018-11-10T07:48:59.728Z,998.40
2018-11-10T07:49:59.710Z,998.43
2018-11-10T07:50:59.699Z,998.42
2018-11-10T07:51:59.668Z,998.43
2018-11-10T07:52:59.649Z,998.45
2018-11-10T07:53:59.643Z,998.46
2018-11-10T07:54:59.606Z,998.47
2018-11-10T07:55:59.685Z,998.46
2018-11-10T07:56:59.567Z,998.46
2018-11-10T07:57:59.543Z,998.45
2018-11-10T07:58:59.526Z,998.46
2018-11-10T07:59:59.503Z,998.48
2018-11-10T08:00:59.487Z,998.42
2018-11-10T08:01:59.467Z,998.49
2018-11-10T08:02:59.449Z,998.48
2018-11-10T08:03:59.422Z,998.42
2018-11-10T08:04:59.400Z,998.44
2018-11-10T08:05:59.381Z,998.45
2018-11-10T08:06:59.372Z,998.46
2018-11-10T08:07:59.342Z,998.45
2018-11-10T08:08:59.316Z,998.52
2018-11-10T08:09:59.300Z,998.50
2018-11-10T08:10:59.279Z,998.53
2018-11-10T08:11:59.356Z,998.49
2018-11-10T08:12:59.245Z,998.48
2018-11-10T08:13:59.243Z,998.48
2018-11-10T08:14:59.192Z,998.50
2018-11-10T08:15:59.179Z,998.43
2018-11-10T08:16:59.151Z,998.48
2018-11-10T08:17:59.141Z,998.45
2018-11-10T08:18:59.110Z,998.48
2018-11-10T08:19:59.088Z,998.49
2018-11-10T08:20:59.085Z,998.47
2018-11-10T08:21:59.061Z,998.49
2018-11-10T08:22:59.027Z,998.50
2018-11-10T08:23:59.007Z,998.44
2018-11-10T08:24:59.028Z,998.46
2018-11-10T08:25:58.965Z,998.41
2018-11-10T08:26:58.963Z,998.44
2018-11-10T08:27:58.941Z,998.43
2018-11-10T08:28:58.903Z,998.44
2018-11-10T08:29:58.883Z,998.44
2018-11-10T08:30:58.876Z,998.42
2018-11-10T08:31:58.848Z,998.42
2018-11-10T08:32:58.825Z,998.38
2018-11-10T08:33:58.801Z,998.38
2018-11-10T08:34:58.845Z,998.36
2018-11-10T08:35:58.759Z,998.38
2018-11-10T08:36:58.760Z,998.42
2018-11-10T08:37:58.717Z,998.40
2018-11-10T08:38:58.747Z,998.42
2018-11-10T08:39:58.682Z,998.46
2018-11-10T08:40:58.656Z,998.46
2018-11-10T08:41:58.634Z,998.52
2018-11-10T08:42:58.626Z,998.49
2018-11-10T08:43:58.598Z,998.52
2018-11-10T08:44:58.573Z,998.51
2018-11-10T08:45:58.552Z,998.49
2018-11-10T08:46:58.532Z,998.52
2018-11-10T08:47:58.512Z,998.50
2018-11-10T08:48:58.548Z,998.51
2018-11-10T08:49:58.472Z,998.52
2018-11-10T08:50:58.451Z,998.59
2018-11-10T08:51:58.429Z,998.52
2018-11-10T08:52:58.409Z,998.51
2018-11-10T08:53:58.397Z,998.54
2018-11-10T08:54:58.377Z,998.57
2018-11-10T08:55:58.350Z,998.53
2018-11-10T08:56:58.329Z,998.50
2018-11-10T08:57:58.308Z,998.53
2018-11-10T08:58:58.295Z,998.51
2018-11-10T08:59:58.269Z,998.46
2018-11-10T09:00:58.246Z,998.52
2018-11-10T09:01:58.233Z,998.47
2018-11-10T09:02:58.207Z,998.55
2018-11-10T09:03:58.184Z,998.44
2018-11-10T09:04:58.162Z,998.40
2018-11-10T09:05:58.150Z,998.42
2018-11-10T09:06:58.123Z,998.45
2018-11-10T09:07:58.104Z,998.41
2018-11-10T09:08:58.081Z,998.41
2018-11-10T09:09:58.164Z,998.41
2018-11-10T09:10:58.042Z,998.40
2018-11-10T09:11:58.020Z,998.48
2018-11-10T09:12:58.000Z,998.43
2018-11-10T09:13:57.982Z,998.44
2018-11-10T09:14:57.990Z,998.48
2018-11-10T09:15:57.941Z,998.51
2018-11-10T09:16:57.926Z,998.49
2018-11-10T09:17:57.901Z,998.52
2018-11-10T09:18:57.895Z,998.55
2018-11-10T09:19:57.861Z,998.52
2018-11-10T09:20:57.877Z,998.53
2018-11-10T09:21:57.826Z,998.60
2018-11-10T09:22:57.798Z,998.55
2018-11-10T09:23:57.809Z,998.54
2018-11-10T09:24:57.757Z,998.59
2018-11-10T09:25:57.738Z,998.59
2018-11-10T09:26:57.737Z,998.64
2018-11-10T09:27:57.696Z,998.63
2018-11-10T09:28:57.677Z,998.67
2018-11-10T09:29:57.667Z,998.68
2018-11-10T09:30:57.756Z,998.67
2018-11-10T09:31:57.726Z,998.74
2018-11-10T09:32:57.605Z,998.69
2018-11-10T09:33:57.578Z,998.67
2018-11-10T09:34:57.561Z,998.77
2018-11-10T09:35:57.553Z,998.73
2018-11-10T09:36:57.533Z,998.72
2018-11-10T09:37:57.512Z,998.70
2018-11-10T09:38:57.480Z,998.81
2018-11-10T09:39:57.459Z,998.81
2018-11-10T09:40:57.440Z,998.87
2018-11-10T09:41:57.438Z,998.84
2018-11-10T09:42:57.401Z,998.88
2018-11-10T09:43:57.387Z,998.92
2018-11-10T09:44:57.361Z,998.91
2018-11-10T09:45:57.365Z,998.98
2018-11-10T09:46:57.332Z,998.89
2018-11-10T09:47:57.308Z,998.95
2018-11-10T09:48:57.283Z,998.90
2018-11-10T09:49:57.279Z,998.92
2018-11-10T09:50:57.331Z,998.88
2018-11-10T09:51:57.224Z,998.91
2018-11-10T09:52:57.206Z,998.89
2018-11-10T09:53:57.284Z,998.86
2018-11-10T09:55:56.610Z,998.88
2018-11-10T09:56:56.590Z,998.88
2018-11-10T09:57:56.581Z,998.83
2018-11-10T09:58:56.561Z,998.85
2018-11-10T09:59:56.548Z,998.82
2018-11-10T10:00:56.529Z,998.88
2018-11-10T10:01:56.974Z,998.86
2018-11-10T10:02:56.474Z,998.82
2018-11-10T10:03:56.452Z,998.90
2018-11-10T10:04:56.436Z,998.87
2018-11-10T10:05:56.416Z,998.88
2018-11-10T10:06:56.395Z,998.96
2018-11-10T10:07:56.385Z,998.92
2018-11-10T10:08:56.415Z,998.93
2018-11-10T10:09:56.342Z,998.87
2018-11-10T10:10:56.319Z,998.87
2018-11-10T10:11:56.296Z,998.86
2018-11-10T10:12:56.284Z,998.92
2018-11-10T10:13:56.259Z,998.90
2018-11-10T10:14:56.247Z,998.90
2018-11-10T10:15:56.242Z,998.91
2018-11-10T10:16:56.201Z,998.87
2018-11-10T10:17:56.181Z,998.85
2018-11-10T10:18:56.166Z,998.83
2018-11-10T10:19:56.143Z,998.84
2018-11-10T10:20:56.123Z,998.89
2018-11-10T10:21:56.190Z,998.83
2018-11-10T10:22:56.099Z,998.85
2018-11-10T10:23:56.065Z,998.79
2018-11-10T10:24:56.046Z,998.80
2018-11-10T10:25:56.032Z,998.81
2018-11-10T10:26:56.018Z,998.79
2018-11-10T10:27:55.997Z,998.85
2018-11-10T10:28:56.033Z,998.84
2018-11-10T10:29:55.953Z,998.87
2018-11-10T10:30:55.939Z,998.86
2018-11-10T10:31:55.912Z,998.83
2018-11-10T10:32:55.889Z,998.83
2018-11-10T10:33:55.918Z,998.77
2018-11-10T10:34:55.955Z,998.77
2018-11-10T10:35:55.840Z,998.74
2018-11-10T10:36:55.817Z,998.77
2018-11-10T10:37:55.828Z,998.67
2018-11-10T10:38:55.785Z,998.66
2018-11-10T10:39:55.759Z,998.65
2018-11-10T10:40:55.739Z,998.70
2018-11-10T10:41:55.720Z,998.63
2018-11-10T10:42:55.783Z,998.67
2018-11-10T10:43:55.688Z,998.69
2018-11-10T10:44:55.684Z,998.68
2018-11-10T10:45:55.651Z,998.65
2018-11-10T10:46:55.632Z,998.69
2018-11-10T10:47:55.614Z,998.70
2018-11-10T10:48:55.822Z,998.69
2018-11-10T10:49:55.568Z,998.76
2018-11-10T10:50:55.556Z,998.81
2018-11-10T10:51:55.530Z,998.79
2018-11-10T10:52:55.512Z,998.77
2018-11-10T10:53:55.492Z,998.79
2018-11-10T10:54:55.474Z,998.80
2018-11-10T10:55:55.473Z,998.79
2018-11-10T10:56:55.502Z,998.80
2018-11-10T10:57:55.432Z,998.74
2018-11-10T10:58:55.397Z,998.78
2018-11-10T10:59:55.377Z,998.74
2018-11-10T11:00:55.511Z,998.76
2018-11-10T11:01:55.340Z,998.74
2018-11-10T11:02:55.434Z,998.75
2018-11-10T11:03:55.308Z,998.74
2018-11-10T11:04:55.283Z,998.72
2018-11-10T11:05:55.264Z,998.71
2018-11-10T11:06:55.247Z,998.67
2018-11-10T11:07:55.227Z,998.65
2018-11-10T11:08:55.289Z,998.64
2018-11-10T11:09:55.192Z,998.68
2018-11-10T11:10:55.173Z,998.63
2018-11-10T11:11:55.155Z,998.65
2018-11-10T11:12:55.135Z,998.65
2018-11-10T11:13:55.123Z,998.64
2018-11-10T11:14:55.153Z,998.57
2018-11-10T11:15:55.231Z,998.62
2018-11-10T11:16:55.063Z,998.53
2018-11-10T11:17:55.133Z,998.58
2018-11-10T11:18:55.030Z,998.55
2018-11-10T11:19:55.017Z,998.59
2018-11-10T11:20:54.986Z,998.63
2018-11-10T11:21:55.108Z,998.59
2018-11-10T11:22:54.949Z,998.59
2018-11-10T11:23:54.929Z,998.57
2018-11-10T11:24:54.925Z,998.59
2018-11-10T11:25:54.892Z,998.62
2018-11-10T11:26:54.873Z,998.58
2018-11-10T11:27:54.857Z,998.62
2018-11-10T11:28:54.850Z,998.67
2018-11-10T11:29:54.823Z,998.64
2018-11-10T11:30:54.812Z,998.63
2018-11-10T11:31:54.791Z,998.60
2018-11-10T11:32:54.797Z,998.60
2018-11-10T11:33:54.808Z,998.64
2018-11-10T11:34:54.729Z,998.63
2018-11-10T11:35:54.726Z,998.61
2018-11-10T11:36:54.701Z,998.60
2018-11-10T11:37:54.677Z,998.63
2018-11-10T11:38:54.661Z,998.65
2018-11-10T11:39:54.651Z,998.63
2018-11-10T11:40:54.681Z,998.61
2018-11-10T11:41:54.702Z,998.57
2018-11-10T11:42:54.585Z,998.64
2018-11-10T11:43:54.568Z,998.63
2018-11-10T11:44:54.552Z,998.55
2018-11-10T11:45:54.532Z,998.64
2018-11-10T11:46:54.518Z,998.62
2018-11-10T11:47:54.492Z,998.66
2018-11-10T11:48:54.478Z,998.63
2018-11-10T11:49:54.505Z,998.61
2018-11-10T11:50:54.450Z,998.64
2018-11-10T11:51:54.422Z,998.59
2018-11-10T11:52:54.409Z,998.58
2018-11-10T11:53:54.384Z,998.57
2018-11-10T11:54:54.365Z,998.57
2018-11-10T11:55:54.353Z,998.56
2018-11-10T11:56:54.331Z,998.61
2018-11-10T11:57:54.512Z,998.60
2018-11-10T11:58:54.292Z,998.54
2018-11-10T11:59:54.289Z,998.54
2018-11-10T12:00:54.262Z,998.57
2018-11-10T12:01:54.279Z,998.55
2018-11-10T12:02:54.227Z,998.54
2018-11-10T12:03:54.252Z,998.57
2018-11-10T12:04:54.187Z,998.55
2018-11-10T12:05:54.169Z,998.48
2018-11-10T12:06:54.187Z,998.54
2018-11-10T12:07:54.137Z,998.54
2018-11-10T12:08:54.112Z,998.54
2018-11-10T12:09:54.095Z,998.61
2018-11-10T12:10:54.091Z,998.53
2018-11-10T12:11:54.059Z,998.48
2018-11-10T12:12:54.039Z,998.52
2018-11-10T12:13:54.021Z,998.55
2018-11-10T12:14:54.015Z,998.52
2018-11-10T12:15:53.982Z,998.47
2018-11-10T12:16:54.033Z,998.45
2018-11-10T12:17:53.964Z,998.43
2018-11-10T12:18:53.934Z,998.48
2018-11-10T12:19:53.922Z,998.50
2018-11-10T12:20:53.978Z,998.42
2018-11-10T12:21:53.894Z,998.41
2018-11-10T12:22:53.862Z,998.46
2018-11-10T12:23:53.838Z,998.39